Home > Products > Valid Products > TAF

000
FTUS45 KBOI 040017 AAA
TAFBNO
TAF AMD
KBNO 040017Z 0400/0424 30012G18KT P6SM SCT250
     FM040100 27008KT P6SM SCT200
     FM041500 VRB05KT P6SM BKN200=



000
FTUS45 KBOI 040017 AAA
TAFBNO
TAF AMD
KBNO 040017Z 0400/0424 30012G18KT P6SM SCT250
     FM040100 27008KT P6SM SCT200
     FM041500 VRB05KT P6SM BKN200=



000
FTUS45 KBOI 032320
TAFJER
TAF
KJER 032320Z 0400/0424 24010KT P6SM SCT250
     FM040300 VRB06KT P6SM SCT120 BKN200
     FM041900 25010KT P6SM BKN250=



000
FTUS45 KBOI 032320
TAFTWF
TAF
KTWF 032320Z 0400/0424 27010KT P6SM BKN120 OVC200
     FM040300 21007KT P6SM SCT120 BKN200
     FM041800 29010KT P6SM BKN250=



000
FTUS45 KBOI 032320
TAFBKE
TAF
KBKE 032320Z 0400/0424 32010KT P6SM SKC
     FM040400 VRB05KT P6SM SKC=



000
FTUS45 KBOI 032320
TAFTWF
TAF
KTWF 032320Z 0400/0424 27010KT P6SM BKN120 OVC200
     FM040300 21007KT P6SM SCT120 BKN200
     FM041800 29010KT P6SM BKN250=



000
FTUS45 KBOI 032320
TAFBNO
TAF
KBNO 032320Z 0400/0424 26008KT P6SM SCT250
     FM040100 27008KT P6SM SCT200
     FM041500 VRB05KT P6SM BKN200=



000
FTUS45 KBOI 032320
TAFBNO
TAF
KBNO 032320Z 0400/0424 26008KT P6SM SCT250
     FM040100 27008KT P6SM SCT200
     FM041500 VRB05KT P6SM BKN200=



000
FTUS45 KBOI 032320
TAFJER
TAF
KJER 032320Z 0400/0424 24010KT P6SM SCT250
     FM040300 VRB06KT P6SM SCT120 BKN200
     FM041900 25010KT P6SM BKN250=



000
FTUS45 KBOI 032320
TAFMYL
TAF
KMYL 032320Z 0400/0424 25007KT P6SM SKC
     FM040300 VRB05KT P6SM SKC
     FM042100 23008KT P6SM BKN250=



000
FTUS45 KBOI 032320
TAFBOI
TAF
KBOI 032320Z 0400/0424 32012KT P6SM FEW250
     FM040300 VRB05KT P6SM SCT250
     FM041700 31008KT P6SM BKN250=



000
FTUS45 KBOI 032320
TAFMYL
TAF
KMYL 032320Z 0400/0424 25007KT P6SM SKC
     FM040300 VRB05KT P6SM SKC
     FM042100 23008KT P6SM BKN250=



000
FTUS45 KBOI 032320
TAFBOI
TAF
KBOI 032320Z 0400/0424 32012KT P6SM FEW250
     FM040300 VRB05KT P6SM SCT250
     FM041700 31008KT P6SM BKN250=



000
FTUS45 KBOI 032320
TAFBKE
TAF
KBKE 032320Z 0400/0424 32010KT P6SM SKC
     FM040400 VRB05KT P6SM SKC=



000
FTUS45 KBOI 031734
TAFBOI
TAF
KBOI 031734Z 0318/0418 31007G17KT P6SM SKC
     FM040300 VRB05KT P6SM SKC=



000
FTUS45 KBOI 031734
TAFJER
TAF
KJER 031734Z 0318/0418 25010KT P6SM FEW200
     FM040300 VRB06KT P6SM SKC=



000
FTUS45 KBOI 031734
TAFTWF
TAF
KTWF 031734Z 0318/0418 29008G18KT P6SM FEW120 SCT200
     FM040300 20011KT P6SM SCT200=



000
FTUS45 KBOI 031734
TAFBNO
TAF
KBNO 031734Z 0318/0418 23009KT P6SM SKC
     FM040100 27008KT P6SM SCT200=



000
FTUS45 KBOI 031734
TAFBKE
TAF
KBKE 031734Z 0318/0418 32010KT P6SM SKC
     FM040400 VRB05KT P6SM SKC=



000
FTUS45 KBOI 031734
TAFMYL
TAF
KMYL 031734Z 0318/0418 32007KT P6SM SKC
     FM040300 VRB05KT P6SM SKC=



000
FTUS45 KBOI 031734
TAFBKE
TAF
KBKE 031734Z 0318/0418 32010KT P6SM SKC
     FM040400 VRB05KT P6SM SKC=



000
FTUS45 KBOI 031734
TAFBNO
TAF
KBNO 031734Z 0318/0418 23009KT P6SM SKC
     FM040100 27008KT P6SM SCT200=



000
FTUS45 KBOI 031734
TAFTWF
TAF
KTWF 031734Z 0318/0418 29008G18KT P6SM FEW120 SCT200
     FM040300 20011KT P6SM SCT200=



000
FTUS45 KBOI 031734
TAFMYL
TAF
KMYL 031734Z 0318/0418 32007KT P6SM SKC
     FM040300 VRB05KT P6SM SKC=



000
FTUS45 KBOI 031734
TAFBOI
TAF
KBOI 031734Z 0318/0418 31007G17KT P6SM SKC
     FM040300 VRB05KT P6SM SKC=



000
FTUS45 KBOI 031734
TAFJER
TAF
KJER 031734Z 0318/0418 25010KT P6SM FEW200
     FM040300 VRB06KT P6SM SKC=



000
FTUS45 KBOI 031734
TAFMYL
TAF
KMYL 031734Z 0318/0418 32007KT P6SM SKC
     FM040300 VRB05KT P6SM SKC=



000
FTUS45 KBOI 031734
TAFTWF
TAF
KTWF 031734Z 0318/0418 29008G18KT P6SM FEW120 SCT200
     FM040300 20011KT P6SM SCT200=



000
FTUS45 KBOI 031734
TAFBKE
TAF
KBKE 031734Z 0318/0418 32010KT P6SM SKC
     FM040400 VRB05KT P6SM SKC=



000
FTUS45 KBOI 031734
TAFJER
TAF
KJER 031734Z 0318/0418 25010KT P6SM FEW200
     FM040300 VRB06KT P6SM SKC=



000
FTUS45 KBOI 031734
TAFBNO
TAF
KBNO 031734Z 0318/0418 23009KT P6SM SKC
     FM040100 27008KT P6SM SCT200=



000
FTUS45 KBOI 031734
TAFBOI
TAF
KBOI 031734Z 0318/0418 31007G17KT P6SM SKC
     FM040300 VRB05KT P6SM SKC=



000
FTUS45 KBOI 031734
TAFTWF
TAF
KTWF 031734Z 0318/0418 29008G18KT P6SM FEW120 SCT200
     FM040300 20011KT P6SM SCT200=



000
FTUS45 KBOI 031734
TAFJER
TAF
KJER 031734Z 0318/0418 25010KT P6SM FEW200
     FM040300 VRB06KT P6SM SKC=



000
FTUS45 KBOI 031734
TAFBNO
TAF
KBNO 031734Z 0318/0418 23009KT P6SM SKC
     FM040100 27008KT P6SM SCT200=



000
FTUS45 KBOI 031734
TAFBOI
TAF
KBOI 031734Z 0318/0418 31007G17KT P6SM SKC
     FM040300 VRB05KT P6SM SKC=



000
FTUS45 KBOI 031734
TAFBKE
TAF
KBKE 031734Z 0318/0418 32010KT P6SM SKC
     FM040400 VRB05KT P6SM SKC=



000
FTUS45 KBOI 031734
TAFMYL
TAF
KMYL 031734Z 0318/0418 32007KT P6SM SKC
     FM040300 VRB05KT P6SM SKC=



000
FTUS45 KBOI 031121
TAFJER
TAF
KJER 031121Z 0312/0412 VRB05KT P6SM SKC
     FM031900 25011G17KT P6SM SCT200
     FM040300 VRB06KT P6SM BKN200=



000
FTUS45 KBOI 031121
TAFBOI
TAF
KBOI 031121Z 0312/0412 VRB03KT P6SM SKC
     FM031800 31009G15KT P6SM SCT200
     FM040300 VRB05KT P6SM BKN200=



000
FTUS45 KBOI 031121
TAFMYL
TAF
KMYL 031121Z 0312/0412 VRB05KT P6SM SKC
     FM032000 29007KT P6SM FEW250
     FM040300 VRB05KT P6SM FEW250=



000
FTUS45 KBOI 031121
TAFBNO
TAF
KBNO 031121Z 0312/0412 27008KT P6SM SCT200=



000
FTUS45 KBOI 031121
TAFBKE
TAF
KBKE 031121Z 0312/0412 VRB05KT P6SM SKC
     FM031800 32010KT P6SM SCT250
     FM040400 VRB05KT P6SM FEW250=



000
FTUS45 KBOI 031121
TAFTWF
TAF
KTWF 031121Z 0312/0412 19011KT P6SM SKC
     FM031800 29009G15KT P6SM SCT200
     FM040300 20013KT P6SM BKN200=



000
FTUS45 KBOI 031121
TAFMYL
TAF
KMYL 031121Z 0312/0412 VRB05KT P6SM SKC
     FM032000 29007KT P6SM FEW250
     FM040300 VRB05KT P6SM FEW250=



000
FTUS45 KBOI 031121
TAFBNO
TAF
KBNO 031121Z 0312/0412 27008KT P6SM SCT200=



000
FTUS45 KBOI 031121
TAFBKE
TAF
KBKE 031121Z 0312/0412 VRB05KT P6SM SKC
     FM031800 32010KT P6SM SCT250
     FM040400 VRB05KT P6SM FEW250=



000
FTUS45 KBOI 031121
TAFBOI
TAF
KBOI 031121Z 0312/0412 VRB03KT P6SM SKC
     FM031800 31009G15KT P6SM SCT200
     FM040300 VRB05KT P6SM BKN200=



000
FTUS45 KBOI 031121
TAFJER
TAF
KJER 031121Z 0312/0412 VRB05KT P6SM SKC
     FM031900 25011G17KT P6SM SCT200
     FM040300 VRB06KT P6SM BKN200=



000
FTUS45 KBOI 031121
TAFTWF
TAF
KTWF 031121Z 0312/0412 19011KT P6SM SKC
     FM031800 29009G15KT P6SM SCT200
     FM040300 20013KT P6SM BKN200=



000
FTUS45 KBOI 031121
TAFBKE
TAF
KBKE 031121Z 0312/0412 VRB05KT P6SM SKC
     FM031800 32010KT P6SM SCT250
     FM040400 VRB05KT P6SM FEW250=



000
FTUS45 KBOI 031121
TAFTWF
TAF
KTWF 031121Z 0312/0412 19011KT P6SM SKC
     FM031800 29009G15KT P6SM SCT200
     FM040300 20013KT P6SM BKN200=



000
FTUS45 KBOI 031121
TAFMYL
TAF
KMYL 031121Z 0312/0412 VRB05KT P6SM SKC
     FM032000 29007KT P6SM FEW250
     FM040300 VRB05KT P6SM FEW250=



000
FTUS45 KBOI 031121
TAFBKE
TAF
KBKE 031121Z 0312/0412 VRB05KT P6SM SKC
     FM031800 32010KT P6SM SCT250
     FM040400 VRB05KT P6SM FEW250=



000
FTUS45 KBOI 031121
TAFBNO
TAF
KBNO 031121Z 0312/0412 27008KT P6SM SCT200=



000
FTUS45 KBOI 031121
TAFTWF
TAF
KTWF 031121Z 0312/0412 19011KT P6SM SKC
     FM031800 29009G15KT P6SM SCT200
     FM040300 20013KT P6SM BKN200=



000
FTUS45 KBOI 031121
TAFBOI
TAF
KBOI 031121Z 0312/0412 VRB03KT P6SM SKC
     FM031800 31009G15KT P6SM SCT200
     FM040300 VRB05KT P6SM BKN200=



000
FTUS45 KBOI 031121
TAFBOI
TAF
KBOI 031121Z 0312/0412 VRB03KT P6SM SKC
     FM031800 31009G15KT P6SM SCT200
     FM040300 VRB05KT P6SM BKN200=



000
FTUS45 KBOI 031121
TAFMYL
TAF
KMYL 031121Z 0312/0412 VRB05KT P6SM SKC
     FM032000 29007KT P6SM FEW250
     FM040300 VRB05KT P6SM FEW250=



000
FTUS45 KBOI 031121
TAFJER
TAF
KJER 031121Z 0312/0412 VRB05KT P6SM SKC
     FM031900 25011G17KT P6SM SCT200
     FM040300 VRB06KT P6SM BKN200=



000
FTUS45 KBOI 031121
TAFBNO
TAF
KBNO 031121Z 0312/0412 27008KT P6SM SCT200=



000
FTUS45 KBOI 031121
TAFJER
TAF
KJER 031121Z 0312/0412 VRB05KT P6SM SKC
     FM031900 25011G17KT P6SM SCT200
     FM040300 VRB06KT P6SM BKN200=



000
FTUS45 KBOI 030520
TAFTWF
TAF
KTWF 030520Z 0306/0406 22010KT P6SM SKC
     FM031800 29010KT P6SM SCT250
     FM040300 22008KT P6SM BKN250=



000
FTUS45 KBOI 030520
TAFBOI
TAF
KBOI 030520Z 0306/0406 VRB03KT P6SM SKC
     FM031800 31010KT P6SM SCT250
     FM040300 VRB05KT P6SM BKN250=



000
FTUS45 KBOI 030520
TAFBKE
TAF
KBKE 030520Z 0306/0406 30010KT P6SM SKC
     FM031800 32008KT P6SM SCT250=



000
FTUS45 KBOI 030520
TAFTWF
TAF
KTWF 030520Z 0306/0406 22010KT P6SM SKC
     FM031800 29010KT P6SM SCT250
     FM040300 22008KT P6SM BKN250=



000
FTUS45 KBOI 030520
TAFMYL
TAF
KMYL 030520Z 0306/0406 VRB06KT P6SM SKC
     FM032000 29007KT P6SM SCT250
     FM040300 VRB05KT P6SM BKN250=



000
FTUS45 KBOI 030520
TAFMYL
TAF
KMYL 030520Z 0306/0406 VRB06KT P6SM SKC
     FM032000 29007KT P6SM SCT250
     FM040300 VRB05KT P6SM BKN250=



000
FTUS45 KBOI 030520
TAFBOI
TAF
KBOI 030520Z 0306/0406 VRB03KT P6SM SKC
     FM031800 31010KT P6SM SCT250
     FM040300 VRB05KT P6SM BKN250=



000
FTUS45 KBOI 030520
TAFTWF
TAF
KTWF 030520Z 0306/0406 22010KT P6SM SKC
     FM031800 29010KT P6SM SCT250
     FM040300 22008KT P6SM BKN250=



000
FTUS45 KBOI 030520
TAFJER
TAF
KJER 030520Z 0306/0406 VRB05KT P6SM SKC
     FM031900 25010KT P6SM SCT250
     FM040300 VRB06KT P6SM BKN250=



000
FTUS45 KBOI 030520
TAFBNO
TAF
KBNO 030520Z 0306/0406 VRB06KT P6SM BKN250=



000
FTUS45 KBOI 022322
TAFBKE
TAF
KBKE 022322Z 0300/0324 31013KT P6SM SKC
     FM030400 VRB05KT P6SM SKC
     FM031800 32008KT P6SM SCT250=



000
FTUS45 KBOI 022322
TAFMYL
TAF
KMYL 022322Z 0300/0324 VRB03KT P6SM SKC
     FM032000 27007KT P6SM SCT250=



000
FTUS45 KBOI 022322
TAFJER
TAF
KJER 022322Z 0300/0324 22012KT P6SM SKC
     FM030400 VRB06KT P6SM SKC
     FM031900 25010KT P6SM BKN250=



000
FTUS45 KBOI 022322
TAFBOI
TAF
KBOI 022322Z 0300/0324 31010KT P6SM SKC
     FM030400 VRB05KT P6SM SKC
     FM031800 31010KT P6SM BKN250=



000
FTUS45 KBOI 022322
TAFTWF
TAF
KTWF 022322Z 0300/0324 34007KT P6SM SKC
     FM030400 21010KT P6SM SKC
     FM031800 30010KT P6SM BKN250=



000
FTUS45 KBOI 022322
TAFBNO
TAF
KBNO 022322Z 0300/0324 VRB05KT P6SM SCT120
     FM030400 30007KT P6SM FEW120
     FM031800 VRB06KT P6SM SCT120 BKN250=



000
FTUS45 KBOI 022322
TAFBKE
TAF
KBKE 022322Z 0300/0324 31013KT P6SM SKC
     FM030400 VRB05KT P6SM SKC
     FM031800 32008KT P6SM SCT250=



000
FTUS45 KBOI 022322
TAFJER
TAF
KJER 022322Z 0300/0324 22012KT P6SM SKC
     FM030400 VRB06KT P6SM SKC
     FM031900 25010KT P6SM BKN250=



000
FTUS45 KBOI 022322
TAFTWF
TAF
KTWF 022322Z 0300/0324 34007KT P6SM SKC
     FM030400 21010KT P6SM SKC
     FM031800 30010KT P6SM BKN250=



000
FTUS45 KBOI 022322
TAFMYL
TAF
KMYL 022322Z 0300/0324 VRB03KT P6SM SKC
     FM032000 27007KT P6SM SCT250=



000
FTUS45 KBOI 022322
TAFBNO
TAF
KBNO 022322Z 0300/0324 VRB05KT P6SM SCT120
     FM030400 30007KT P6SM FEW120
     FM031800 VRB06KT P6SM SCT120 BKN250=



000
FTUS45 KBOI 022322
TAFBOI
TAF
KBOI 022322Z 0300/0324 31010KT P6SM SKC
     FM030400 VRB05KT P6SM SKC
     FM031800 31010KT P6SM BKN250=



000
FTUS45 KBOI 021721
TAFTWF
TAF
KTWF 021721Z 0218/0318 32009KT P6SM SKC
     FM030400 21008KT P6SM SKC=



000
FTUS45 KBOI 021721
TAFJER
TAF
KJER 021721Z 0218/0318 27010KT P6SM SKC
     FM030400 VRB05KT P6SM SKC=



000
FTUS45 KBOI 021721
TAFTWF
TAF
KTWF 021721Z 0218/0318 32009KT P6SM SKC
     FM030400 21008KT P6SM SKC=



000
FTUS45 KBOI 021721
TAFBNO
TAF
KBNO 021721Z 0218/0318 VRB05KT P6SM FEW120
     FM030400 28005KT P6SM FEW120 SCT250=



000
FTUS45 KBOI 021721
TAFBKE
TAF
KBKE 021721Z 0218/0318 31010KT P6SM SKC
     FM030400 VRB05KT P6SM SKC=



000
FTUS45 KBOI 021721
TAFBOI
TAF
KBOI 021721Z 0218/0318 31010KT P6SM SKC
     FM030400 14005KT P6SM SKC=



000
FTUS45 KBOI 021721
TAFBOI
TAF
KBOI 021721Z 0218/0318 31010KT P6SM SKC
     FM030400 14005KT P6SM SKC=



000
FTUS45 KBOI 021721
TAFBNO
TAF
KBNO 021721Z 0218/0318 VRB05KT P6SM FEW120
     FM030400 28005KT P6SM FEW120 SCT250=



000
FTUS45 KBOI 021721
TAFBKE
TAF
KBKE 021721Z 0218/0318 31010KT P6SM SKC
     FM030400 VRB05KT P6SM SKC=



000
FTUS45 KBOI 021721
TAFJER
TAF
KJER 021721Z 0218/0318 27010KT P6SM SKC
     FM030400 VRB05KT P6SM SKC=



000
FTUS45 KBOI 021721
TAFMYL
TAF
KMYL 021721Z 0218/0318 31007KT P6SM SKC
     FM030300 VRB04KT P6SM SKC=



000
FTUS45 KBOI 021721
TAFMYL
TAF
KMYL 021721Z 0218/0318 31007KT P6SM SKC
     FM030300 VRB04KT P6SM SKC=



000
FTUS45 KBOI 021122
TAFBKE
TAF
KBKE 021122Z 0212/0312 VRB06KT P6SM SKC
     FM022100 31012KT P6SM SKC
     FM030300 VRB05KT P6SM SKC=



000
FTUS45 KBOI 021122
TAFJER
TAF
KJER 021122Z 0212/0312 VRB06KT P6SM SKC
     FM022100 27010KT P6SM SKC
     FM030400 VRB06KT P6SM SKC=



000
FTUS45 KBOI 021122
TAFBKE
TAF
KBKE 021122Z 0212/0312 VRB06KT P6SM SKC
     FM022100 31012KT P6SM SKC
     FM030300 VRB05KT P6SM SKC=



000
FTUS45 KBOI 021122
TAFBOI
TAF
KBOI 021122Z 0212/0312 VRB06KT P6SM SKC
     FM021800 30010KT P6SM SKC
     FM030600 14005KT P6SM SKC=



000
FTUS45 KBOI 021122
TAFMYL
TAF
KMYL 021122Z 0212/0312 VRB06KT P6SM SKC
     FM022200 31008KT P6SM SKC
     FM030300 VRB04KT P6SM SKC=



000
FTUS45 KBOI 021122
TAFTWF
TAF
KTWF 021122Z 0212/0312 23010KT P6SM SCT250
     FM021800 32010KT P6SM SKC
     FM030300 21008KT P6SM SKC=



000
FTUS45 KBOI 021122
TAFBNO
TAF
KBNO 021122Z 0212/0312 VRB06KT P6SM SKC=



000
FTUS45 KBOI 021122
TAFJER
TAF
KJER 021122Z 0212/0312 VRB06KT P6SM SKC
     FM022100 27010KT P6SM SKC
     FM030400 VRB06KT P6SM SKC=



000
FTUS45 KBOI 021122
TAFBOI
TAF
KBOI 021122Z 0212/0312 VRB06KT P6SM SKC
     FM021800 30010KT P6SM SKC
     FM030600 14005KT P6SM SKC=



000
FTUS45 KBOI 021122
TAFTWF
TAF
KTWF 021122Z 0212/0312 23010KT P6SM SCT250
     FM021800 32010KT P6SM SKC
     FM030300 21008KT P6SM SKC=



000
FTUS45 KBOI 021122
TAFBNO
TAF
KBNO 021122Z 0212/0312 VRB06KT P6SM SKC=



000
FTUS45 KBOI 021122
TAFMYL
TAF
KMYL 021122Z 0212/0312 VRB06KT P6SM SKC
     FM022200 31008KT P6SM SKC
     FM030300 VRB04KT P6SM SKC=



000
FTUS45 KBOI 021122
TAFBOI
TAF
KBOI 021122Z 0212/0312 VRB06KT P6SM SKC
     FM021800 30010KT P6SM SKC
     FM030600 14005KT P6SM SKC=



000
FTUS45 KBOI 021122
TAFJER
TAF
KJER 021122Z 0212/0312 VRB06KT P6SM SKC
     FM022100 27010KT P6SM SKC
     FM030400 VRB06KT P6SM SKC=



000
FTUS45 KBOI 021122
TAFMYL
TAF
KMYL 021122Z 0212/0312 VRB06KT P6SM SKC
     FM022200 31008KT P6SM SKC
     FM030300 VRB04KT P6SM SKC=



000
FTUS45 KBOI 021122
TAFTWF
TAF
KTWF 021122Z 0212/0312 23010KT P6SM SCT250
     FM021800 32010KT P6SM SKC
     FM030300 21008KT P6SM SKC=



000
FTUS45 KBOI 021122
TAFBNO
TAF
KBNO 021122Z 0212/0312 VRB06KT P6SM SKC=



000
FTUS45 KBOI 021122
TAFBKE
TAF
KBKE 021122Z 0212/0312 VRB06KT P6SM SKC
     FM022100 31012KT P6SM SKC
     FM030300 VRB05KT P6SM SKC=



000
FTUS45 KBOI 020520
TAFTWF
TAF
KTWF 020520Z 0206/0306 23010KT P6SM SCT250
     FM021800 32010KT P6SM SKC
     FM030300 21008KT P6SM SKC=



000
FTUS45 KBOI 020520
TAFBOI
TAF
KBOI 020520Z 0206/0306 VRB06KT P6SM SKC
     FM021800 30007KT P6SM SKC=



000
FTUS45 KBOI 020520
TAFJER
TAF
KJER 020520Z 0206/0306 VRB06KT P6SM SKC
     FM022100 27010KT P6SM SKC
     FM030400 20006KT P6SM SKC=



000
FTUS45 KBOI 020520
TAFTWF
TAF
KTWF 020520Z 0206/0306 23010KT P6SM SCT250
     FM021800 32010KT P6SM SKC
     FM030300 21008KT P6SM SKC=



000
FTUS45 KBOI 020520
TAFJER
TAF
KJER 020520Z 0206/0306 VRB06KT P6SM SKC
     FM022100 27010KT P6SM SKC
     FM030400 20006KT P6SM SKC=



000
FTUS45 KBOI 020520
TAFBOI
TAF
KBOI 020520Z 0206/0306 VRB06KT P6SM SKC
     FM021800 30007KT P6SM SKC=



000
FTUS45 KBOI 020520
TAFBNO
TAF
KBNO 020520Z 0206/0306 VRB06KT P6SM SCT250
     FM030200 30008KT P6SM SKC=



000
FTUS45 KBOI 020520
TAFMYL
TAF
KMYL 020520Z 0206/0306 VRB06KT P6SM SKC
     FM022200 31007KT P6SM SKC=



000
FTUS45 KBOI 020520
TAFBKE
TAF
KBKE 020520Z 0206/0306 VRB06KT P6SM SKC
     FM022100 31007KT P6SM SKC=



000
FTUS45 KBOI 020520
TAFBNO
TAF
KBNO 020520Z 0206/0306 VRB06KT P6SM SCT250
     FM030200 30008KT P6SM SKC=



000
FTUS45 KBOI 020520
TAFBKE
TAF
KBKE 020520Z 0206/0306 VRB06KT P6SM SKC
     FM022100 31007KT P6SM SKC=



000
FTUS45 KBOI 020520
TAFMYL
TAF
KMYL 020520Z 0206/0306 VRB06KT P6SM SKC
     FM022200 31007KT P6SM SKC=



000
FTUS45 KBOI 020122 AAA
TAFBOI
TAF AMD
KBOI 020122Z 0201/0224 34007KT P6SM SCT250
     FM020400 VRB05KT P6SM SKC
     FM021800 30007KT P6SM SKC=



000
FTUS45 KBOI 020122 AAA
TAFBOI
TAF AMD
KBOI 020122Z 0201/0224 34007KT P6SM SCT250
     FM020400 VRB05KT P6SM SKC
     FM021800 30007KT P6SM SKC=



000
FTUS45 KBOI 012337
TAFMYL
TAF
KMYL 012337Z 0200/0224 VRB04KT P6SM SKC
     FM022100 29007KT P6SM SKC=



000
FTUS45 KBOI 012337
TAFBOI
TAF
KBOI 012337Z 0200/0224 32010G20KT P6SM SKC
     FM020400 VRB05KT P6SM SKC
     FM021800 30007KT P6SM SKC=



000
FTUS45 KBOI 012337
TAFJER
TAF
KJER 012337Z 0200/0224 22010KT P6SM SCT250
     FM020400 VRB06KT P6SM SKC
     FM022100 27019KT P6SM SKC=



000
FTUS45 KBOI 012337
TAFTWF
TAF
KTWF 012337Z 0200/0224 32007KT P6SM BKN250
     FM020300 22010KT P6SM SKC
     FM021800 32010KT P6SM SKC=



000
FTUS45 KBOI 012337
TAFBOI
TAF
KBOI 012337Z 0200/0224 32010G20KT P6SM SKC
     FM020400 VRB05KT P6SM SKC
     FM021800 30007KT P6SM SKC=



000
FTUS45 KBOI 012337
TAFTWF
TAF
KTWF 012337Z 0200/0224 32007KT P6SM BKN250
     FM020300 22010KT P6SM SKC
     FM021800 32010KT P6SM SKC=



000
FTUS45 KBOI 012337
TAFMYL
TAF
KMYL 012337Z 0200/0224 VRB04KT P6SM SKC
     FM022100 29007KT P6SM SKC=



000
FTUS45 KBOI 012337
TAFJER
TAF
KJER 012337Z 0200/0224 22010KT P6SM SCT250
     FM020400 VRB06KT P6SM SKC
     FM022100 27019KT P6SM SKC=



000
FTUS45 KBOI 012337
TAFBKE
TAF
KBKE 012337Z 0200/0224 29010KT P6SM SKC
     FM020500 VRB04KT P6SM SKC
     FM022100 31007KT P6SM SKC=



000
FTUS45 KBOI 012337
TAFTWF
TAF
KTWF 012337Z 0200/0224 32007KT P6SM BKN250
     FM020300 22010KT P6SM SKC
     FM021800 32010KT P6SM SKC=



000
FTUS45 KBOI 012337
TAFMYL
TAF
KMYL 012337Z 0200/0224 VRB04KT P6SM SKC
     FM022100 29007KT P6SM SKC=



000
FTUS45 KBOI 012337
TAFJER
TAF
KJER 012337Z 0200/0224 22010KT P6SM SCT250
     FM020400 VRB06KT P6SM SKC
     FM022100 27019KT P6SM SKC=



000
FTUS45 KBOI 012337
TAFBNO
TAF
KBNO 012337Z 0200/0224 VRB06KT P6SM SKC=



000
FTUS45 KBOI 012337
TAFBOI
TAF
KBOI 012337Z 0200/0224 32010G20KT P6SM SKC
     FM020400 VRB05KT P6SM SKC
     FM021800 30007KT P6SM SKC=



000
FTUS45 KBOI 012337
TAFBKE
TAF
KBKE 012337Z 0200/0224 29010KT P6SM SKC
     FM020500 VRB04KT P6SM SKC
     FM022100 31007KT P6SM SKC=



000
FTUS45 KBOI 012337
TAFMYL
TAF
KMYL 012337Z 0200/0224 VRB04KT P6SM SKC
     FM022100 29007KT P6SM SKC=



000
FTUS45 KBOI 012337
TAFTWF
TAF
KTWF 012337Z 0200/0224 32007KT P6SM BKN250
     FM020300 22010KT P6SM SKC
     FM021800 32010KT P6SM SKC=



000
FTUS45 KBOI 012337
TAFBKE
TAF
KBKE 012337Z 0200/0224 29010KT P6SM SKC
     FM020500 VRB04KT P6SM SKC
     FM022100 31007KT P6SM SKC=



000
FTUS45 KBOI 012337
TAFBNO
TAF
KBNO 012337Z 0200/0224 VRB06KT P6SM SKC=



000
FTUS45 KBOI 012337
TAFJER
TAF
KJER 012337Z 0200/0224 22010KT P6SM SCT250
     FM020400 VRB06KT P6SM SKC
     FM022100 27019KT P6SM SKC=



000
FTUS45 KBOI 012337
TAFBOI
TAF
KBOI 012337Z 0200/0224 32010G20KT P6SM SKC
     FM020400 VRB05KT P6SM SKC
     FM021800 30007KT P6SM SKC=



000
FTUS45 KBOI 012337
TAFBNO
TAF
KBNO 012337Z 0200/0224 VRB06KT P6SM SKC=



000
FTUS45 KBOI 012216 AAA
TAFJER
TAF AMD
KJER 012216Z 0122/0218 25012KT P6SM SCT250
     FM020400 VRB06KT P6SM SKC
      AMD NOT SKED=



000
FTUS45 KBOI 012216 AAA
TAFJER
TAF AMD
KJER 012216Z 0122/0218 25012KT P6SM SCT250
     FM020400 VRB06KT P6SM SKC
      AMD NOT SKED=



000
FTUS45 KBOI 011720
TAFBOI
TAF
KBOI 011720Z 0118/0218 31012KT P6SM SCT250
     FM020300 VRB05KT P6SM SKC=



000
FTUS45 KBOI 011720
TAFBKE
TAF
KBKE 011720Z 0118/0218 VRB04KT P6SM SKC
     FM012100 31009KT P6SM SKC
     FM020500 VRB04KT P6SM SKC=



000
FTUS45 KBOI 011720
TAFTWF
TAF
KTWF 011720Z 0118/0218 30014KT P6SM SCT250
     FM020300 21012KT P6SM SKC=



000
FTUS45 KBOI 011720
TAFJER
TAF
KJER 011720Z 0118/0218 25012KT P6SM SCT250
     FM020400 VRB06KT P6SM SKC=



000
FTUS45 KBOI 011720
TAFBNO
TAF
KBNO 011720Z 0118/0218 VRB06KT P6SM SKC=



000
FTUS45 KBOI 011720
TAFBOI
TAF
KBOI 011720Z 0118/0218 31012KT P6SM SCT250
     FM020300 VRB05KT P6SM SKC=



000
FTUS45 KBOI 011720
TAFBKE
TAF
KBKE 011720Z 0118/0218 VRB04KT P6SM SKC
     FM012100 31009KT P6SM SKC
     FM020500 VRB04KT P6SM SKC=



000
FTUS45 KBOI 011720
TAFBNO
TAF
KBNO 011720Z 0118/0218 VRB06KT P6SM SKC=



000
FTUS45 KBOI 011720
TAFMYL
TAF
KMYL 011720Z 0118/0218 VRB06KT P6SM SKC=



000
FTUS45 KBOI 011720
TAFBKE
TAF
KBKE 011720Z 0118/0218 VRB04KT P6SM SKC
     FM012100 31009KT P6SM SKC
     FM020500 VRB04KT P6SM SKC=



000
FTUS45 KBOI 011720
TAFMYL
TAF
KMYL 011720Z 0118/0218 VRB06KT P6SM SKC=



000
FTUS45 KBOI 011720
TAFBNO
TAF
KBNO 011720Z 0118/0218 VRB06KT P6SM SKC=



000
FTUS45 KBOI 011720
TAFBKE
TAF
KBKE 011720Z 0118/0218 VRB04KT P6SM SKC
     FM012100 31009KT P6SM SKC
     FM020500 VRB04KT P6SM SKC=



000
FTUS45 KBOI 011720
TAFTWF
TAF
KTWF 011720Z 0118/0218 30014KT P6SM SCT250
     FM020300 21012KT P6SM SKC=



000
FTUS45 KBOI 011720
TAFBOI
TAF
KBOI 011720Z 0118/0218 31012KT P6SM SCT250
     FM020300 VRB05KT P6SM SKC=



000
FTUS45 KBOI 011720
TAFMYL
TAF
KMYL 011720Z 0118/0218 VRB06KT P6SM SKC=



000
FTUS45 KBOI 011720
TAFJER
TAF
KJER 011720Z 0118/0218 25012KT P6SM SCT250
     FM020400 VRB06KT P6SM SKC=



000
FTUS45 KBOI 011120
TAFTWF
TAF
KTWF 011120Z 0112/0212 20011KT P6SM SCT150
     FM011800 28015G22KT P6SM FEW150
     FM020400 21011KT P6SM SKC=



000
FTUS45 KBOI 011120
TAFBKE
TAF
KBKE 011120Z 0112/0212 VRB05KT P6SM SKC
     FM020000 31008KT P6SM SKC=



000
FTUS45 KBOI 011120
TAFJER
TAF
KJER 011120Z 0112/0212 20010KT P6SM SCT150
     FM011800 26013G20KT P6SM FEW150
     FM020300 VRB06KT P6SM SKC=



000
FTUS45 KBOI 011120
TAFMYL
TAF
KMYL 011120Z 0112/0212 VRB06KT P6SM SKC=



000
FTUS45 KBOI 011120
TAFTWF
TAF
KTWF 011120Z 0112/0212 20011KT P6SM SCT150
     FM011800 28015G22KT P6SM FEW150
     FM020400 21011KT P6SM SKC=



000
FTUS45 KBOI 011120
TAFTWF
TAF
KTWF 011120Z 0112/0212 20011KT P6SM SCT150
     FM011800 28015G22KT P6SM FEW150
     FM020400 21011KT P6SM SKC=



000
FTUS45 KBOI 011120
TAFBOI
TAF
KBOI 011120Z 0112/0212 VRB06KT P6SM FEW150
     FM011900 31012KT P6SM SKC
     FM020300 VRB05KT P6SM SKC=



000
FTUS45 KBOI 011120
TAFBNO
TAF
KBNO 011120Z 0112/0212 VRB05KT P6SM SKC=



000
FTUS45 KBOI 011120
TAFBKE
TAF
KBKE 011120Z 0112/0212 VRB05KT P6SM SKC
     FM020000 31008KT P6SM SKC=



000
FTUS45 KBOI 011120
TAFBNO
TAF
KBNO 011120Z 0112/0212 VRB05KT P6SM SKC=



000
FTUS45 KBOI 011120
TAFJER
TAF
KJER 011120Z 0112/0212 20010KT P6SM SCT150
     FM011800 26013G20KT P6SM FEW150
     FM020300 VRB06KT P6SM SKC=



000
FTUS45 KBOI 011120
TAFMYL
TAF
KMYL 011120Z 0112/0212 VRB06KT P6SM SKC=



000
FTUS45 KBOI 011120
TAFBNO
TAF
KBNO 011120Z 0112/0212 VRB05KT P6SM SKC=



000
FTUS45 KBOI 011120
TAFBOI
TAF
KBOI 011120Z 0112/0212 VRB06KT P6SM FEW150
     FM011900 31012KT P6SM SKC
     FM020300 VRB05KT P6SM SKC=



000
FTUS45 KBOI 011120
TAFJER
TAF
KJER 011120Z 0112/0212 20010KT P6SM SCT150
     FM011800 26013G20KT P6SM FEW150
     FM020300 VRB06KT P6SM SKC=



000
FTUS45 KBOI 011120
TAFBOI
TAF
KBOI 011120Z 0112/0212 VRB06KT P6SM FEW150
     FM011900 31012KT P6SM SKC
     FM020300 VRB05KT P6SM SKC=



000
FTUS45 KBOI 011120
TAFBNO
TAF
KBNO 011120Z 0112/0212 VRB05KT P6SM SKC=



000
FTUS45 KBOI 011120
TAFTWF
TAF
KTWF 011120Z 0112/0212 20011KT P6SM SCT150
     FM011800 28015G22KT P6SM FEW150
     FM020400 21011KT P6SM SKC=



000
FTUS45 KBOI 011120
TAFBKE
TAF
KBKE 011120Z 0112/0212 VRB05KT P6SM SKC
     FM020000 31008KT P6SM SKC=



000
FTUS45 KBOI 011120
TAFBKE
TAF
KBKE 011120Z 0112/0212 VRB05KT P6SM SKC
     FM020000 31008KT P6SM SKC=



000
FTUS45 KBOI 011120
TAFBOI
TAF
KBOI 011120Z 0112/0212 VRB06KT P6SM FEW150
     FM011900 31012KT P6SM SKC
     FM020300 VRB05KT P6SM SKC=



000
FTUS45 KBOI 011120
TAFMYL
TAF
KMYL 011120Z 0112/0212 VRB06KT P6SM SKC=



000
FTUS45 KBOI 011120
TAFMYL
TAF
KMYL 011120Z 0112/0212 VRB06KT P6SM SKC=



000
FTUS45 KBOI 011120
TAFJER
TAF
KJER 011120Z 0112/0212 20010KT P6SM SCT150
     FM011800 26013G20KT P6SM FEW150
     FM020300 VRB06KT P6SM SKC=



000
FTUS45 KBOI 010520
TAFBNO
TAF
KBNO 010520Z 0106/0206 29012KT P6SM SKC
     FM011000 VRB05KT P6SM SKC
     FM020200 33008KT P6SM SKC=



000
FTUS45 KBOI 010520
TAFMYL
TAF
KMYL 010520Z 0106/0206 VRB05KT P6SM SKC=



000
FTUS45 KBOI 010520
TAFBNO
TAF
KBNO 010520Z 0106/0206 29012KT P6SM SKC
     FM011000 VRB05KT P6SM SKC
     FM020200 33008KT P6SM SKC=



000
FTUS45 KBOI 010520
TAFMYL
TAF
KMYL 010520Z 0106/0206 VRB05KT P6SM SKC=



000
FTUS45 KBOI 010520
TAFBOI
TAF
KBOI 010520Z 0106/0206 VRB06KT P6SM FEW150
     FM011900 31010KT P6SM SKC=



000
FTUS45 KBOI 010520
TAFBOI
TAF
KBOI 010520Z 0106/0206 VRB06KT P6SM FEW150
     FM011900 31010KT P6SM SKC=



000
FTUS45 KBOI 010520
TAFMYL
TAF
KMYL 010520Z 0106/0206 VRB05KT P6SM SKC=



000
FTUS45 KBOI 010520
TAFMYL
TAF
KMYL 010520Z 0106/0206 VRB05KT P6SM SKC=



000
FTUS45 KBOI 010520
TAFBNO
TAF
KBNO 010520Z 0106/0206 29012KT P6SM SKC
     FM011000 VRB05KT P6SM SKC
     FM020200 33008KT P6SM SKC=



000
FTUS45 KBOI 010520
TAFJER
TAF
KJER 010520Z 0106/0206 15015KT P6SM BKN150
     FM011800 26013G20KT P6SM FEW150=



000
FTUS45 KBOI 010520
TAFJER
TAF
KJER 010520Z 0106/0206 15015KT P6SM BKN150
     FM011800 26013G20KT P6SM FEW150=



000
FTUS45 KBOI 010520
TAFBKE
TAF
KBKE 010520Z 0106/0206 VRB05KT P6SM SKC
     FM020000 31008KT P6SM SKC=



000
FTUS45 KBOI 010520
TAFTWF
TAF
KTWF 010520Z 0106/0206 17019G27KT P6SM BKN150
     FM011800 28015G22KT P6SM FEW150=



000
FTUS45 KBOI 010520
TAFBKE
TAF
KBKE 010520Z 0106/0206 VRB05KT P6SM SKC
     FM020000 31008KT P6SM SKC=



000
FTUS45 KBOI 010520
TAFTWF
TAF
KTWF 010520Z 0106/0206 17019G27KT P6SM BKN150
     FM011800 28015G22KT P6SM FEW150=



000
FTUS45 KBOI 010520
TAFBKE
TAF
KBKE 010520Z 0106/0206 VRB05KT P6SM SKC
     FM020000 31008KT P6SM SKC=



000
FTUS45 KBOI 010520
TAFTWF
TAF
KTWF 010520Z 0106/0206 17019G27KT P6SM BKN150
     FM011800 28015G22KT P6SM FEW150=



000
FTUS45 KBOI 010520
TAFJER
TAF
KJER 010520Z 0106/0206 15015KT P6SM BKN150
     FM011800 26013G20KT P6SM FEW150=



000
FTUS45 KBOI 010520
TAFBNO
TAF
KBNO 010520Z 0106/0206 29012KT P6SM SKC
     FM011000 VRB05KT P6SM SKC
     FM020200 33008KT P6SM SKC=



000
FTUS45 KBOI 010520
TAFBOI
TAF
KBOI 010520Z 0106/0206 VRB06KT P6SM FEW150
     FM011900 31010KT P6SM SKC=



000
FTUS45 KBOI 010520
TAFBKE
TAF
KBKE 010520Z 0106/0206 VRB05KT P6SM SKC
     FM020000 31008KT P6SM SKC=



000
FTUS45 KBOI 010520
TAFTWF
TAF
KTWF 010520Z 0106/0206 17019G27KT P6SM BKN150
     FM011800 28015G22KT P6SM FEW150=



000
FTUS45 KBOI 010520
TAFJER
TAF
KJER 010520Z 0106/0206 15015KT P6SM BKN150
     FM011800 26013G20KT P6SM FEW150=



000
FTUS45 KBOI 010402 AAA
TAFJER
TAF AMD
KJER 010402Z 0104/0124 23007KT P6SM SCT150
      TEMPO 0104/0106 21010G20KT
     FM010600 19007KT P6SM SKC
     FM011800 26013G20KT P6SM FEW150=



000
FTUS45 KBOI 010402 AAA
TAFJER
TAF AMD
KJER 010402Z 0104/0124 23007KT P6SM SCT150
      TEMPO 0104/0106 21010G20KT
     FM010600 19007KT P6SM SKC
     FM011800 26013G20KT P6SM FEW150=



000
FTUS45 KBOI 010401 AAA
TAFTWF
TAF AMD
KTWF 010401Z 0104/0124 19015G25KT P6SM BKN150
     FM010600 21012KT P6SM SKC
     FM011800 28014G21KT P6SM FEW150=



000
FTUS45 KBOI 010401 AAA
TAFTWF
TAF AMD
KTWF 010401Z 0104/0124 19015G25KT P6SM BKN150
     FM010600 21012KT P6SM SKC
     FM011800 28014G21KT P6SM FEW150=



000
FTUS45 KBOI 010207 AAA
TAFBNO
TAF AMD
KBNO 010207Z 0102/0124 33014KT P6SM SKC
     FM010500 31007KT P6SM SKC
     FM011000 VRB05KT P6SM SKC=



000
FTUS45 KBOI 010207 AAA
TAFBNO
TAF AMD
KBNO 010207Z 0102/0124 33014KT P6SM SKC
     FM010500 31007KT P6SM SKC
     FM011000 VRB05KT P6SM SKC=



    US Dept of Commerce
    National Oceanic and Atmospheric Administration
    National Weather Service
    1325 East West Highway
    Silver Spring, MD 20910
    Page Author: NWS Internet Services Team
Disclaimer
Information Quality
Credits
Glossary
Privacy Policy
Freedom of Information Act (FOIA)
About Us
Career Opportunities